ホーチミン の空港の天気 - METARとTAF

タンソンニャット国際空港 (ホーチミン) ( VVTS / SGN ) - ベトナム ホーチミン市
飛行場実況気象(Metar)
観測時間12/10 12:00 ICT (12/10 05:00 UTC)
風向・風速東 5m/s
視程10km以上
天気現象
少しの雲 雲底高度 610m
気温33℃
湿度53%
気圧1009hPa
METARVVTS 100500Z 08009KT 050V130 9999 FEW020 33/22 Q1009 NOSIG
過去の天気等 Google飛行場航空写真 Wunderground天気予報

過去48時間のMETAR

飛行場予報(TAF)
発表時間: 12/10 06:00 ICT (12/09 23:00 UTC)
予報対象時間: 10日7時 ICT ~ 11日13時 ICT
風向・風速東南東 3m/s
視程10km以上
全天の4割程度の雲 雲底高度 460m
全天の8割程度の雲 雲底高度 1520m
TAF VVTS 092300Z 1000/1106 11006KT 9999 SCT015 BKN050